Time;durP1;ratioP1;P1;durP2;ratioP2;P2;SDS_P1;SDS_P2;PMS_P1;PMS_P2;Temp;Humidity;BMP_temperature;BMP_pressure;BME280_temperature;BME280_humidity;BME280_pressure;Samples;Min_cycle;Max_cycle;Signal;HPM_P1;HPM_P2
2021/04/21 00:00:23;;;;;;;8.27;4.07;;;;;;;23.94;39.33;99431.09;4487966;31;33436;-60
2021/04/21 00:02:51;;;;;;;8.35;3.97;;;;;;;23.94;39.42;99436.56;4513507;31;33856;-61
2021/04/21 00:05:19;;;;;;;9.05;3.62;;;;;;;23.95;39.35;99438.19;4513865;31;33243;-61
2021/04/21 00:07:47;;;;;;;7.50;3.40;;;;;;;23.95;39.41;99440.09;4513884;31;33278;-61
2021/04/21 00:10:14;;;;;;;9.77;3.70;;;;;;;23.94;39.30;99439.28;4500776;31;34473;-62
2021/04/21 00:12:41;;;;;;;8.77;3.85;;;;;;;23.95;39.31;99440.09;4500769;31;33741;-60
2021/04/21 00:15:11;;;;;;;9.70;4.07;;;;;;;23.95;39.31;99440.09;4500470;31;33622;-60
2021/04/21 00:17:40;;;;;;;9.43;4.30;;;;;;;23.93;39.30;99443.06;4501194;31;34451;-61
2021/04/21 00:20:08;;;;;;;12.05;3.60;;;;;;;23.93;39.35;99430.28;4513929;31;33928;-60
2021/04/21 00:22:35;;;;;;;9.35;3.47;;;;;;;23.94;39.24;99433.81;4513689;31;33807;-61
2021/04/21 00:25:03;;;;;;;8.57;3.53;;;;;;;23.93;39.22;99435.72;4505421;31;33769;-58
2021/04/21 00:27:30;;;;;;;8.52;3.60;;;;;;;23.92;39.16;99428.63;4522030;31;33252;-59
2021/04/21 00:29:59;;;;;;;11.77;3.60;;;;;;;23.92;39.19;99427.78;4490983;31;34762;-59
2021/04/21 00:32:27;;;;;;;8.80;3.60;;;;;;;23.91;39.21;99429.66;4500565;31;34098;-60
2021/04/21 00:34:57;;;;;;;9.32;4.03;;;;;;;23.90;39.15;99428.00;4513533;31;34633;-58
2021/04/21 00:37:26;;;;;;;8.23;3.42;;;;;;;23.89;39.16;99426.38;4514075;31;34314;-58
2021/04/21 00:39:53;;;;;;;8.20;3.37;;;;;;;23.89;39.23;99420.91;4502981;31;33925;-58
2021/04/21 00:42:32;;;;;;;7.05;3.47;;;;;;;23.89;39.27;99420.09;4516877;31;33949;-57
2021/04/21 00:45:46;;;;;;;11.45;3.53;;;;;;;23.88;39.24;99424.72;4515598;31;33701;-59
2021/04/21 00:48:30;;;;;;;8.70;3.62;;;;;;;23.91;39.14;99416.03;4501410;31;32028;-59
2021/04/21 00:51:03;;;;;;;9.30;3.47;;;;;;;23.88;39.21;99413.81;4513273;31;33770;-61
2021/04/21 00:53:41;;;;;;;6.78;2.97;;;;;;;23.86;39.33;99410.47;4501018;31;34860;-60
2021/04/21 00:56:15;;;;;;;7.57;3.53;;;;;;;23.84;39.30;99418.09;4493945;31;34872;-60
2021/04/21 00:58:57;;;;;;;9.18;3.33;;;;;;;23.84;39.33;99411.81;4505861;31;33228;-60
2021/04/21 01:01:25;;;;;;;10.93;3.72;;;;;;;23.83;39.31;99412.88;4506502;31;33754;-61
2021/04/21 01:03:53;;;;;;;7.28;3.33;;;;;;;23.83;39.37;99418.31;4505419;31;34897;-61
2021/04/21 01:06:23;;;;;;;6.43;3.33;;;;;;;23.83;39.41;99418.31;4505152;31;33860;-57
2021/04/21 01:08:58;;;;;;;6.43;3.28;;;;;;;23.82;39.51;99420.19;4505031;31;34720;-60
2021/04/21 01:11:40;;;;;;;8.02;3.53;;;;;;;23.82;39.43;99422.91;4532997;31;33763;-61
2021/04/21 01:14:10;;;;;;;7.47;3.20;;;;;;;23.84;39.42;99428.16;4505428;31;33828;-61
2021/04/21 01:16:40;;;;;;;13.98;3.53;;;;;;;23.82;39.38;99416.66;4518696;31;33840;-61
2021/04/21 01:19:12;;;;;;;8.35;3.62;;;;;;;23.80;39.40;99419.63;4505429;31;33345;-59
2021/04/21 01:21:45;;;;;;;7.55;3.60;;;;;;;23.81;39.39;99425.91;4532529;31;34579;-61
2021/04/21 01:24:15;;;;;;;9.25;3.30;;;;;;;23.80;39.41;99419.63;4518261;31;33869;-60
2021/04/21 01:27:14;;;;;;;8.30;3.12;;;;;;;23.80;39.43;99418.78;4532486;31;33778;-61
2021/04/21 01:29:53;;;;;;;7.15;3.08;;;;;;;23.83;39.53;99431.94;4518059;31;33269;-61
2021/04/21 01:32:25;;;;;;;10.75;3.22;;;;;;;23.80;39.47;99426.97;4518183;31;34571;-61
2021/04/21 01:34:53;;;;;;;7.35;3.15;;;;;;;23.79;39.46;99422.59;4518001;31;33632;-60
2021/04/21 01:37:25;;;;;;;8.95;3.08;;;;;;;23.78;39.44;99431.81;4517937;31;34522;-61
2021/04/21 01:40:20;;;;;;;7.00;3.00;;;;;;;23.78;39.39;99431.81;4532467;31;34135;-61
2021/04/21 01:42:51;;;;;;;8.23;3.62;;;;;;;23.81;39.38;99429.44;4515847;31;33786;-61
2021/04/21 01:45:23;;;;;;;6.60;3.08;;;;;;;23.78;39.42;99432.66;4515062;31;34002;-61
2021/04/21 01:47:50;;;;;;;7.03;3.22;;;;;;;23.76;39.42;99423.88;4515263;31;34192;-60
2021/04/21 01:50:22;;;;;;;5.40;2.95;;;;;;;23.78;39.36;99423.63;4501633;31;34172;-61
2021/04/21 01:53:08;;;;;;;8.23;3.30;;;;;;;23.76;39.36;99425.78;4515264;31;33784;-61
2021/04/21 01:55:51;;;;;;;8.23;3.05;;;;;;;23.78;39.32;99421.78;4516360;31;33880;-61
2021/04/21 02:02:00;;;;;;;8.57;3.45;;;;;;;23.77;39.49;99427.44;4514713;31;33369;-60
2021/04/21 02:05:05;;;;;;;7.30;3.42;;;;;;;23.76;39.65;99429.34;4515096;31;33876;-61
2021/04/21 02:07:58;;;;;;;6.57;2.97;;;;;;;23.75;39.64;99426.84;4516306;31;34777;-60
2021/04/21 02:11:16;;;;;;;6.95;2.87;;;;;;;23.73;39.67;99421.63;4515166;31;33780;-60
2021/04/21 02:14:21;;;;;;;10.00;3.83;;;;;;;23.76;39.60;99423.88;4438036;32;32837;-61
2021/04/21 02:17:02;;;;;;;6.60;3.00;;;;;;;23.75;39.63;99424.13;4516198;31;35271;-61
2021/04/21 02:19:31;;;;;;;7.68;3.00;;;;;;;23.72;39.69;99425.41;4514846;31;34904;-61
2021/04/21 02:22:33;;;;;;;5.05;2.80;;;;;;;23.72;39.69;99424.59;4515010;31;34350;-59
2021/04/21 02:25:22;;;;;;;7.12;3.00;;;;;;;23.73;39.54;99420.78;4515301;31;33423;-61
2021/04/21 02:28:07;;;;;;;5.90;3.12;;;;;;;23.73;39.67;99424.34;4516008;31;34611;-60
2021/04/21 02:30:43;;;;;;;5.93;2.97;;;;;;;23.72;39.56;99419.16;4516106;31;33943;-61
2021/04/21 02:33:36;;;;;;;6.18;2.95;;;;;;;23.70;39.55;99422.13;4514639;31;33852;-61
2021/04/21 02:36:12;;;;;;;6.82;3.00;;;;;;;23.70;39.68;99419.41;4504082;31;34526;-61
2021/04/21 02:38:52;;;;;;;10.13;3.28;;;;;;;23.71;39.60;99422.94;4516167;31;34496;-61
2021/04/21 02:41:38;;;;;;;6.07;2.90;;;;;;;23.71;39.58;99428.38;4502096;31;33924;-60
2021/04/21 02:44:33;;;;;;;6.35;3.05;;;;;;;23.70;39.61;99429.47;4515059;31;33637;-61
2021/04/21 02:47:08;;;;;;;5.85;2.60;;;;;;;23.70;39.61;99419.41;4516148;31;33374;-61
2021/04/21 02:49:56;;;;;;;10.52;3.05;;;;;;;23.68;39.75;99419.63;4501411;31;33879;-59
2021/04/21 02:52:47;;;;;;;8.85;2.53;;;;;;;23.69;39.56;99428.63;4501745;31;33846;-61
2021/04/21 02:55:26;;;;;;;7.50;3.20;;;;;;;23.69;39.59;99428.63;4501472;31;33784;-61
2021/04/21 02:58:05;;;;;;;6.45;3.10;;;;;;;23.68;39.63;99433.22;4502044;31;33051;-61
2021/04/21 03:00:46;;;;;;;6.00;2.97;;;;;;;23.67;39.67;99434.31;4501744;31;33850;-60
2021/04/21 03:03:21;;;;;;;8.20;3.20;;;;;;;23.68;39.66;99440.56;4488767;31;33820;-61
2021/04/21 03:05:51;;;;;;;8.02;2.80;;;;;;;23.66;39.58;99443.53;4488779;31;33828;-60
2021/04/21 03:08:19;;;;;;;7.53;3.10;;;;;;;23.64;39.57;99440.25;4501536;31;34653;-61
2021/04/21 03:10:51;;;;;;;6.95;2.90;;;;;;;23.66;39.67;99440.00;4501375;31;34901;-60
2021/04/21 03:13:21;;;;;;;7.95;2.92;;;;;;;23.64;39.89;99442.97;4515825;31;33697;-61
2021/04/21 03:15:57;;;;;;;6.03;3.00;;;;;;;23.65;39.80;99441.91;4501690;31;33739;-61
2021/04/21 03:18:26;;;;;;;9.48;2.78;;;;;;;23.66;39.79;99442.72;4501471;31;34454;-61
2021/04/21 03:20:57;;;;;;;7.03;2.87;;;;;;;23.64;39.78;99444.84;4501444;31;34291;-60
2021/04/21 03:23:25;;;;;;;6.85;2.90;;;;;;;23.64;39.77;99442.97;4501461;31;33809;-61
2021/04/21 03:25:52;;;;;;;5.32;2.62;;;;;;;23.64;39.72;99434.78;4488269;31;34138;-60
2021/04/21 03:28:20;;;;;;;5.47;2.65;;;;;;;23.63;39.70;99440.44;4488286;31;33957;-61
2021/04/21 03:30:51;;;;;;;5.15;2.58;;;;;;;23.63;39.73;99440.44;4488495;31;34839;-61
2021/04/21 03:33:23;;;;;;;4.95;2.90;;;;;;;23.62;39.69;99436.87;4475309;31;36304;-61
2021/04/21 03:35:51;;;;;;;6.80;2.95;;;;;;;23.63;39.80;99443.97;4488767;31;33673;-61
2021/04/21 03:38:20;;;;;;;5.90;3.05;;;;;;;23.63;39.79;99440.44;4515525;31;33507;-60
2021/04/21 03:40:47;;;;;;;7.78;2.85;;;;;;;23.62;39.82;99442.31;4515587;31;34705;-60
2021/04/21 03:43:15;;;;;;;8.18;2.60;;;;;;;23.62;39.87;99439.59;4515561;31;33809;-60
2021/04/21 03:45:45;;;;;;;5.50;3.00;;;;;;;23.61;39.75;99440.69;4488084;31;34716;-59
2021/04/21 03:48:13;;;;;;;;;;;;;;;23.61;39.80;99437.13;4501589;31;33376;-62
2021/04/21 03:50:40;;;;;;;6.78;2.62;;;;;;;23.71;39.59;99442.84;4501455;31;33674;-62
2021/04/21 03:53:08;;;;;;;7.12;3.00;;;;;;;23.63;39.70;99446.69;4500855;31;34886;-60
2021/04/21 03:55:35;;;;;;;10.30;3.22;;;;;;;23.60;39.79;99446.38;4515538;31;33425;-62
2021/04/21 03:58:10;;;;;;;5.55;2.65;;;;;;;23.60;39.75;99446.38;4515504;31;33263;-61
2021/04/21 04:00:39;;;;;;;8.63;3.03;;;;;;;23.59;39.72;99447.41;4515465;31;33925;-61
2021/04/21 04:03:16;;;;;;;6.28;2.60;;;;;;;23.59;39.79;99450.97;4515324;31;34731;-61
2021/04/21 04:05:46;;;;;;;5.82;2.83;;;;;;;23.58;39.72;99449.31;4500805;31;33773;-61
2021/04/21 04:08:16;;;;;;;9.20;2.80;;;;;;;23.57;39.74;99450.38;4501109;31;34118;-61
2021/04/21 04:10:50;;;;;;;4.95;2.50;;;;;;;23.58;39.83;99456.66;4500837;31;33801;-60
2021/04/21 04:13:17;;;;;;;4.97;2.72;;;;;;;23.59;39.76;99456.41;4500395;31;35150;-61
2021/04/21 04:15:46;;;;;;;7.37;2.92;;;;;;;23.57;39.78;99457.72;4500910;31;33734;-61
2021/04/21 04:18:14;;;;;;;5.80;2.45;;;;;;;23.57;39.78;99461.28;4500912;31;33417;-61
2021/04/21 04:20:42;;;;;;;5.93;2.65;;;;;;;23.57;39.78;99466.72;4515128;31;33537;-61
2021/04/21 04:23:11;;;;;;;7.40;3.00;;;;;;;23.56;39.75;99465.06;4515270;31;33811;-59
2021/04/21 04:25:41;;;;;;;5.30;2.58;;;;;;;23.56;39.79;99467.78;4515192;31;34208;-60
2021/04/21 04:28:09;;;;;;;6.90;2.95;;;;;;;23.55;39.74;99471.59;4500749;31;34507;-60
2021/04/21 04:30:40;;;;;;;6.70;3.05;;;;;;;23.56;39.67;99475.13;4514997;31;33883;-60
2021/04/21 04:33:07;;;;;;;7.43;3.28;;;;;;;23.55;39.78;99476.19;4514741;31;33861;-61
2021/04/21 04:35:35;;;;;;;4.60;2.55;;;;;;;23.55;39.75;99479.75;4514932;31;34586;-60
2021/04/21 04:38:02;;;;;;;6.53;2.90;;;;;;;23.55;39.67;99479.75;4514826;31;33464;-61
2021/04/21 04:40:30;;;;;;;9.75;2.72;;;;;;;23.55;39.75;99484.34;4514893;31;33878;-59
2021/04/21 04:42:57;;;;;;;8.63;2.70;;;;;;;23.56;39.80;99481.41;4512059;31;33962;-60
2021/04/21 04:45:29;;;;;;;6.22;3.22;;;;;;;23.56;39.75;99486.84;4507192;31;33823;-60
2021/04/21 04:48:03;;;;;;;6.25;2.47;;;;;;;23.55;39.79;99479.75;4530451;31;33323;-60
2021/04/21 04:50:31;;;;;;;10.43;2.95;;;;;;;23.56;39.80;99488.75;4518765;31;33611;-59
2021/04/21 04:52:58;;;;;;;7.45;2.60;;;;;;;23.57;39.75;99495.84;4515252;31;34477;-61
2021/04/21 04:55:26;;;;;;;8.18;2.72;;;;;;;23.56;39.79;99494.19;4523342;31;33542;-60
2021/04/21 04:57:55;;;;;;;10.23;2.97;;;;;;;23.56;39.82;99499.66;4514559;31;34260;-61
2021/04/21 05:00:25;;;;;;;6.03;2.85;;;;;;;23.55;39.81;99504.25;4526218;31;34893;-60
2021/04/21 05:02:59;;;;;;;8.07;2.83;;;;;;;23.55;39.79;99501.53;4530369;31;33886;-61
2021/04/21 05:05:27;;;;;;;9.90;2.80;;;;;;;23.56;39.79;99497.75;4530768;31;34543;-57
2021/04/21 05:08:07;;;;;;;7.40;2.60;;;;;;;23.55;39.70;99507.00;4530201;31;33261;-60
2021/04/21 05:10:39;;;;;;;6.00;2.75;;;;;;;23.56;39.74;99499.66;4516206;31;33811;-61
2021/04/21 05:13:09;;;;;;;8.55;2.30;;;;;;;23.54;39.94;99508.03;4522751;31;33975;-60
2021/04/21 05:15:39;;;;;;;7.18;2.67;;;;;;;23.54;39.79;99499.84;4512914;31;33274;-59
2021/04/21 05:18:44;;;;;;;5.07;2.67;;;;;;;23.55;39.83;99500.69;4518419;31;33234;-59
2021/04/21 05:21:49;;;;;;;10.07;2.90;;;;;;;23.58;39.79;99506.50;4523264;31;33833;-59
2021/04/21 05:24:22;;;;;;;12.65;3.80;;;;;;;23.57;39.69;99506.75;4518169;31;33916;-60
2021/04/21 05:26:59;;;;;;;10.75;5.07;;;;;;;23.53;39.47;99506.37;4524296;31;33792;-59
2021/04/21 05:29:54;;;;;;;13.52;7.05;;;;;;;23.53;39.07;99503.66;4524027;31;33860;-58
2021/04/21 05:32:59;;;;;;;11.07;6.20;;;;;;;23.55;38.66;99511.56;4507272;31;33807;-60
2021/04/21 05:36:02;;;;;;;10.10;5.72;;;;;;;23.53;38.50;99509.09;4522003;31;33995;-60
2021/04/21 05:39:07;;;;;;;12.52;8.25;;;;;;;23.50;38.39;99506.88;4510854;31;33722;-66
2021/04/21 05:41:56;;;;;;;13.60;7.18;;;;;;;23.49;38.30;99513.34;4532219;31;34199;-59
2021/04/21 05:44:54;;;;;;;19.60;6.95;;;;;;;23.48;38.68;99517.16;4516558;31;34655;-59
2021/04/21 05:47:40;;;;;;;16.37;6.15;;;;;;;23.46;38.78;99513.84;4525967;31;33859;-57
2021/04/21 05:50:25;;;;;;;22.27;7.03;;;;;;;23.42;38.74;99516.19;4518092;31;34670;-59
2021/04/21 05:53:01;;;;;;;15.95;6.90;;;;;;;23.42;38.96;99518.91;4521899;31;33390;-59
2021/04/21 05:56:00;;;;;;;12.70;6.82;;;;;;;23.46;39.04;99524.72;4524481;31;33774;-59
2021/04/21 05:58:39;;;;;;;12.63;6.90;;;;;;;23.46;39.07;99523.91;4512970;31;34328;-59
2021/04/21 06:01:15;;;;;;;;;;;;;;;23.46;39.15;99530.19;4522280;31;34350;-59
2021/04/21 06:03:51;;;;;;;12.55;5.68;;;;;;;23.56;39.03;99514.09;4522692;31;33017;-49
2021/04/21 06:06:18;;;;;;;14.18;5.82;;;;;;;23.51;39.17;99521.31;4508790;31;34533;-51
2021/04/21 06:08:45;;;;;;;13.13;5.78;;;;;;;23.48;39.31;99521.75;4516410;31;34566;-52
2021/04/21 06:11:31;;;;;;;11.57;5.35;;;;;;;23.47;39.30;99534.56;4530526;31;33461;-48
2021/04/21 06:14:00;;;;;;;8.52;5.25;;;;;;;23.50;39.32;99539.53;4522461;31;33287;-50
2021/04/21 06:16:28;;;;;;;8.68;5.57;;;;;;;23.50;39.27;99533.25;4522810;31;33727;-58
2021/04/21 06:19:08;;;;;;;10.48;5.25;;;;;;;23.50;39.37;99536.81;4523232;31;33884;-58
2021/04/21 06:21:37;;;;;;;11.02;5.10;;;;;;;23.51;39.37;99535.75;4515358;31;33731;-59
2021/04/21 06:24:25;;;;;;;11.98;5.10;;;;;;;23.51;39.46;99535.75;4515630;31;34077;-59
2021/04/21 06:27:11;;;;;;;13.73;4.80;;;;;;;23.55;39.34;99542.41;4516153;31;33787;-58
2021/04/21 06:29:39;;;;;;;8.52;4.72;;;;;;;23.54;39.41;99529.81;4515611;31;33930;-59
2021/04/21 06:32:12;;;;;;;9.77;4.50;;;;;;;23.53;39.56;99535.50;4515374;31;34548;-59
2021/04/21 06:34:40;;;;;;;11.32;4.37;;;;;;;23.52;39.53;99536.56;4515541;31;33403;-58
2021/04/21 06:37:07;;;;;;;9.68;4.45;;;;;;;23.53;39.49;99538.22;4516647;31;33811;-59
2021/04/21 06:39:34;;;;;;;9.43;4.40;;;;;;;23.53;39.56;99522.72;4504197;31;34886;-55
2021/04/21 06:42:03;;;;;;;7.45;4.15;;;;;;;23.54;39.53;99520.81;4531917;31;33830;-59
2021/04/21 06:44:45;;;;;;;9.52;4.60;;;;;;;23.54;39.53;99529.00;4531875;31;33311;-59
2021/04/21 06:47:18;;;;;;;7.85;4.12;;;;;;;23.55;39.64;99533.38;4532191;31;33829;-59
2021/04/21 06:49:57;;;;;;;11.20;4.45;;;;;;;23.55;39.55;99536.09;4526006;31;33758;-57
2021/04/21 06:52:35;;;;;;;9.73;3.83;;;;;;;23.55;39.53;99541.53;4529746;31;34683;-57
2021/04/21 06:55:03;;;;;;;11.12;4.18;;;;;;;23.55;39.44;99541.53;4531925;31;33005;-59
2021/04/21 06:57:31;;;;;;;9.52;4.32;;;;;;;23.54;39.36;99543.44;4515956;31;33669;-52
2021/04/21 07:00:24;;;;;;;9.20;4.18;;;;;;;23.54;39.47;99542.59;4516424;31;33746;-50
2021/04/21 07:02:53;;;;;;;12.48;4.40;;;;;;;23.55;39.45;99544.25;4531765;31;33554;-56
2021/04/21 07:05:27;;;;;;;12.10;4.45;;;;;;;23.54;39.51;99543.44;4531469;31;34730;-57
2021/04/21 07:08:06;;;;;;;11.43;4.35;;;;;;;23.56;39.50;99543.22;4531545;31;33765;-53
2021/04/21 07:10:37;;;;;;;11.63;4.55;;;;;;;23.56;39.53;99541.31;4531583;31;33874;-55
2021/04/21 07:13:07;;;;;;;11.80;4.25;;;;;;;23.55;39.60;99536.94;4531515;31;33618;-53
2021/04/21 07:15:34;;;;;;;12.68;4.28;;;;;;;23.55;39.60;99538.81;4517183;31;33981;-54
2021/04/21 07:18:01;;;;;;;8.95;4.03;;;;;;;23.55;39.57;99542.41;4516932;31;33785;-53
2021/04/21 07:20:29;;;;;;;12.45;4.15;;;;;;;23.56;39.63;99544.03;4514872;31;33832;-56
2021/04/21 07:22:58;;;;;;;10.02;3.67;;;;;;;23.57;39.67;99551.16;4493592;31;33517;-52
2021/04/21 07:25:25;;;;;;;11.23;4.40;;;;;;;23.56;39.66;99552.22;4513721;31;33055;-52
2021/04/21 07:27:53;;;;;;;8.57;3.85;;;;;;;23.57;39.72;99551.16;4513508;31;33720;-54
2021/04/21 07:30:27;;;;;;;8.68;3.60;;;;;;;23.58;39.71;99554.69;4505653;31;35357;-54
2021/04/21 07:32:56;;;;;;;9.95;3.85;;;;;;;23.60;39.75;99560.75;4517960;31;34536;-58
2021/04/21 07:35:24;;;;;;;11.32;4.20;;;;;;;23.58;39.73;99557.41;4524036;31;33433;-58
2021/04/21 07:37:52;;;;;;;9.95;3.80;;;;;;;23.59;39.75;99562.62;4524983;31;33749;-53
2021/04/21 07:40:23;;;;;;;6.28;4.00;;;;;;;23.59;39.83;99568.06;4520550;31;33941;-55
2021/04/21 07:42:49;;;;;;;;;;;;;;;23.60;39.72;99561.59;4523142;31;34512;-57
2021/04/21 07:45:20;;;;;;;7.47;3.70;;;;;;;23.71;39.50;99564.59;4525320;31;32921;-59
2021/04/21 07:47:47;;;;;;;10.32;3.85;;;;;;;23.62;39.77;99564.06;4520589;31;33892;-59
2021/04/21 07:50:15;;;;;;;14.68;4.32;;;;;;;23.60;39.79;99574.37;4522791;31;33848;-58
2021/04/21 07:52:42;;;;;;;9.63;4.03;;;;;;;23.60;39.77;99577.94;4522223;31;34412;-59
2021/04/21 07:55:17;;;;;;;12.60;4.15;;;;;;;23.60;39.72;99582.53;4522396;31;33219;-56
2021/04/21 07:57:55;;;;;;;8.65;3.80;;;;;;;23.59;39.73;99576.25;4521218;31;34718;-56
2021/04/21 08:00:29;;;;;;;10.30;3.85;;;;;;;23.58;39.75;99581.94;4508853;31;33577;-56
2021/04/21 08:02:57;;;;;;;11.68;3.92;;;;;;;23.60;39.76;99585.28;4515071;31;33768;-50
2021/04/21 08:05:24;;;;;;;8.82;4.20;;;;;;;23.60;39.80;99586.09;4513749;31;33612;-55
2021/04/21 08:07:58;;;;;;;12.05;4.37;;;;;;;23.60;39.86;99591.53;4515142;31;33757;-54
2021/04/21 08:10:27;;;;;;;10.52;3.85;;;;;;;23.60;39.87;99591.53;4515030;31;33617;-57
2021/04/21 08:12:56;;;;;;;9.40;4.35;;;;;;;23.60;39.87;99593.44;4515036;31;34576;-52
2021/04/21 08:15:28;;;;;;;11.40;4.30;;;;;;;23.60;39.84;99591.53;4514896;31;33127;-50
2021/04/21 08:18:04;;;;;;;12.65;3.87;;;;;;;23.62;39.77;99594.03;4515311;31;33720;-51
2021/04/21 08:20:40;;;;;;;16.87;4.20;;;;;;;23.62;39.88;99594.84;4515111;31;34720;-50
2021/04/21 08:23:28;;;;;;;11.48;4.22;;;;;;;23.60;39.93;99591.53;4519448;31;33390;-55
2021/04/21 08:25:55;;;;;;;8.93;3.75;;;;;;;23.61;39.91;99593.19;4530926;31;33893;-59
2021/04/21 08:28:22;;;;;;;9.30;4.18;;;;;;;23.61;39.96;99595.94;4530877;31;35250;-55
2021/04/21 08:31:00;;;;;;;10.30;3.55;;;;;;;23.61;39.89;99595.09;4530832;31;33949;-57
2021/04/21 08:33:27;;;;;;;9.13;3.87;;;;;;;23.62;39.86;99589.41;4530860;31;34415;-54
2021/04/21 08:35:55;;;;;;;7.37;3.20;;;;;;;23.62;39.97;99597.56;4530789;31;33914;-56
2021/04/21 08:38:22;;;;;;;10.55;3.87;;;;;;;23.62;39.97;99600.31;4530614;31;33767;-51
2021/04/21 08:40:49;;;;;;;11.52;3.42;;;;;;;23.62;39.86;99600.31;4530734;31;33851;-53
2021/04/21 08:43:16;;;;;;;17.70;3.92;;;;;;;23.61;39.86;99597.81;4530776;31;33669;-59
2021/04/21 08:45:44;;;;;;;12.00;3.75;;;;;;;23.61;39.88;99597.81;4530395;31;33254;-55
2021/04/21 08:48:12;;;;;;;16.58;3.75;;;;;;;23.61;39.93;99593.19;4502853;31;34431;-55
2021/04/21 08:50:40;;;;;;;9.63;3.58;;;;;;;23.62;39.94;99599.47;4519298;31;34585;-53
2021/04/21 08:53:08;;;;;;;19.42;4.78;;;;;;;23.62;39.92;99602.19;4514362;31;34883;-53
2021/04/21 08:55:36;;;;;;;10.35;3.85;;;;;;;23.60;39.95;99597.00;4514319;31;35349;-54
2021/04/21 08:58:03;;;;;;;9.35;3.87;;;;;;;23.59;39.92;99598.03;4513058;31;33749;-56
2021/04/21 09:00:30;;;;;;;10.63;3.60;;;;;;;23.61;39.95;99593.19;4514640;31;33840;-55
2021/04/21 09:03:01;;;;;;;8.52;4.10;;;;;;;23.61;39.91;99592.38;4516676;31;34382;-52
2021/04/21 09:05:29;;;;;;;9.52;3.53;;;;;;;23.61;39.91;99587.75;4516681;31;33355;-60
2021/04/21 09:07:56;;;;;;;9.48;3.40;;;;;;;23.62;39.88;99588.56;4516516;31;33730;-54
2021/04/21 09:10:23;;;;;;;7.68;3.58;;;;;;;23.62;39.94;99588.56;4515548;31;34722;-55
2021/04/21 09:12:50;;;;;;;9.27;3.65;;;;;;;23.61;39.98;99590.47;4516913;31;33667;-50
2021/04/21 09:15:17;;;;;;;9.40;3.78;;;;;;;23.62;39.98;99583.97;4516579;31;34155;-56
2021/04/21 09:17:49;;;;;;;12.80;3.62;;;;;;;23.63;39.94;99590.22;4516826;31;33862;-53
2021/04/21 09:20:18;;;;;;;12.10;4.12;;;;;;;23.63;39.93;99579.34;4516697;31;33929;-59
2021/04/21 09:23:07;;;;;;;8.27;3.40;;;;;;;23.63;39.95;99591.06;4516531;31;33682;-58
2021/04/21 09:25:36;;;;;;;12.93;4.10;;;;;;;23.66;39.94;99589.81;4532408;31;34035;-58
2021/04/21 09:28:04;;;;;;;8.88;3.62;;;;;;;23.62;40.09;99583.97;4532339;31;34699;-59
2021/04/21 09:30:31;;;;;;;9.52;3.90;;;;;;;23.62;40.06;99589.41;4518012;31;33861;-53
2021/04/21 09:32:59;;;;;;;7.87;4.18;;;;;;;23.63;40.08;99588.34;4532442;31;33656;-59
2021/04/21 09:35:29;;;;;;;8.00;3.47;;;;;;;23.63;40.05;99580.16;4532295;31;34050;-53
2021/04/21 09:38:21;;;;;;;10.30;3.70;;;;;;;23.64;40.05;99587.31;4532444;31;33571;-54
2021/04/21 09:40:53;;;;;;;11.82;3.58;;;;;;;23.66;39.98;99574.28;4532585;31;34636;-55
2021/04/21 09:43:23;;;;;;;12.90;3.95;;;;;;;23.63;40.10;99582.06;4532248;31;33885;-56
2021/04/21 09:46:03;;;;;;;12.05;3.72;;;;;;;23.62;40.12;99578.50;4518972;31;34079;-55
2021/04/21 09:48:38;;;;;;;6.60;3.40;;;;;;;23.64;40.06;99578.28;4516499;31;34466;-54
2021/04/21 09:51:11;;;;;;;9.02;3.72;;;;;;;23.63;40.14;99582.06;4516148;31;35583;-56
2021/04/21 09:53:39;;;;;;;7.40;3.30;;;;;;;23.63;40.15;99579.34;4516718;31;34626;-59
2021/04/21 09:56:25;;;;;;;8.73;3.45;;;;;;;23.63;40.20;99579.34;4516322;31;33285;-59
2021/04/21 09:58:54;;;;;;;10.43;3.22;;;;;;;23.64;40.11;99576.44;4516071;31;33611;-60
2021/04/21 10:01:37;;;;;;;9.68;3.58;;;;;;;23.62;40.21;99578.50;4515930;31;33955;-56
2021/04/21 10:04:08;;;;;;;9.93;3.62;;;;;;;23.64;40.17;99575.56;4516247;31;33846;-60
2021/04/21 10:06:39;;;;;;;8.45;3.42;;;;;;;23.62;40.26;99580.41;4516243;31;33409;-59
2021/04/21 10:09:33;;;;;;;9.48;3.37;;;;;;;23.63;40.19;99576.63;4501852;31;33879;-59
2021/04/21 10:12:15;;;;;;;7.93;3.55;;;;;;;23.65;40.11;99569.09;4515846;31;33592;-51
2021/04/21 10:14:43;;;;;;;9.80;3.87;;;;;;;23.64;40.13;99570.97;4516051;31;33778;-55
2021/04/21 10:17:11;;;;;;;9.80;2.92;;;;;;;23.62;40.16;99574.97;4515849;31;33474;-52
2021/04/21 10:19:39;;;;;;;10.73;3.30;;;;;;;23.62;40.20;99564.06;4501544;31;33759;-53
2021/04/21 10:22:07;;;;;;;10.05;4.05;;;;;;;23.64;40.17;99575.56;4515877;31;34828;-53
2021/04/21 10:24:34;;;;;;;8.98;3.60;;;;;;;23.62;40.27;99572.22;4513262;31;33958;-59
2021/04/21 10:27:01;;;;;;;7.25;3.62;;;;;;;23.62;40.21;99567.63;4517612;31;33264;-55
2021/04/21 10:29:28;;;;;;;7.45;3.55;;;;;;;23.62;40.26;99564.91;4517475;31;33797;-60
2021/04/21 10:31:55;;;;;;;9.82;3.42;;;;;;;23.64;40.19;99570.12;4504229;31;34949;-60
2021/04/21 10:34:23;;;;;;;10.90;3.37;;;;;;;23.64;40.23;99564.69;4531934;31;33828;-60
2021/04/21 10:36:50;;;;;;;5.90;3.45;;;;;;;23.64;40.31;99570.97;4532052;31;33357;-56
2021/04/21 10:39:28;;;;;;;11.82;4.22;;;;;;;23.64;40.32;99572.84;4517597;31;33859;-58
2021/04/21 10:42:15;;;;;;;8.00;3.50;;;;;;;23.65;40.23;99566.37;4517525;31;34021;-55
2021/04/21 10:44:44;;;;;;;8.80;3.37;;;;;;;23.65;40.26;99558.19;4525999;31;33735;-58
2021/04/21 10:47:15;;;;;;;10.98;3.62;;;;;;;23.62;40.22;99562.16;4516180;31;33216;-60
2021/04/21 10:50:03;;;;;;;9.40;3.72;;;;;;;23.60;40.23;99564.31;4515510;31;33499;-54
2021/04/21 10:52:30;;;;;;;11.18;4.25;;;;;;;23.64;40.08;99564.69;4520135;31;33890;-56
2021/04/21 10:55:01;;;;;;;10.77;3.60;;;;;;;23.60;40.20;99558.87;4531677;31;33787;-55
2021/04/21 10:57:30;;;;;;;8.90;3.37;;;;;;;23.60;40.16;99553.41;4531516;31;33246;-56
2021/04/21 11:00:22;;;;;;;11.57;3.63;;;;;;;23.60;40.17;99552.59;4531946;31;34678;-55
2021/04/21 11:02:50;;;;;;;9.05;3.50;;;;;;;23.63;40.14;99560.28;4531768;31;34953;-55
2021/04/21 11:05:21;;;;;;;14.95;4.20;;;;;;;23.61;40.25;99556.97;4531707;31;33366;-53
2021/04/21 11:08:02;;;;;;;12.98;3.47;;;;;;;23.59;40.27;99549.00;4531592;31;33694;-52
2021/04/21 11:10:41;;;;;;;10.45;3.30;;;;;;;23.61;40.22;99548.78;4531215;31;34619;-60
2021/04/21 11:13:09;;;;;;;14.27;4.43;;;;;;;23.60;40.27;99541.69;4531624;31;33635;-56
2021/04/21 11:15:55;;;;;;;6.75;3.28;;;;;;;23.59;40.29;99540.84;4531612;31;34410;-55
2021/04/21 11:18:22;;;;;;;8.77;3.42;;;;;;;23.63;40.23;99538.47;4517162;31;33877;-58
2021/04/21 11:20:49;;;;;;;7.28;3.20;;;;;;;23.62;40.25;99534.09;4531294;31;34797;-59
2021/04/21 11:23:45;;;;;;;7.60;3.20;;;;;;;23.61;40.26;99536.00;4526964;31;33883;-50
2021/04/21 11:29:13;;;;;;;8.60;3.80;;;;;;;23.63;40.24;99527.59;4515553;31;34050;-59
2021/04/21 11:31:41;;;;;;;10.23;3.40;;;;;;;23.63;40.29;99525.69;4515577;31;34755;-59
2021/04/21 11:34:17;;;;;;;13.80;4.20;;;;;;;23.61;40.33;99525.09;4515498;31;33805;-60
2021/04/21 11:36:50;;;;;;;7.10;3.53;;;;;;;23.60;40.26;99526.19;4519859;31;33585;-59
2021/04/21 11:39:42;;;;;;;12.07;3.45;;;;;;;23.58;40.25;99528.28;4523769;31;33358;-58
2021/04/21 11:42:39;;;;;;;9.00;3.90;;;;;;;23.60;40.32;99523.47;4524044;31;33808;-61
2021/04/21 11:45:12;;;;;;;12.10;3.55;;;;;;;23.58;40.30;99533.75;4531530;31;34702;-61
2021/04/21 11:47:45;;;;;;;9.45;3.40;;;;;;;23.57;40.23;99523.09;4520366;31;34540;-61
2021/04/21 11:50:17;;;;;;;11.50;3.35;;;;;;;23.55;40.25;99525.19;4515509;31;33362;-62
2021/04/21 11:52:56;;;;;;;6.22;3.20;;;;;;;23.55;40.18;99522.47;4515386;31;33613;-61
2021/04/21 11:55:26;;;;;;;11.48;3.67;;;;;;;23.53;40.15;99520.00;4515523;31;33782;-61
2021/04/21 11:58:19;;;;;;;6.12;2.92;;;;;;;23.53;40.11;99522.72;4515629;31;33304;-62
2021/04/21 12:00:56;;;;;;;9.48;3.25;;;;;;;23.54;40.06;99520.81;4514577;31;32981;-58
2021/04/21 12:03:31;;;;;;;7.20;3.12;;;;;;;23.54;40.03;99521.66;4515186;31;33855;-62
2021/04/21 12:06:04;;;;;;;6.00;2.83;;;;;;;23.53;39.99;99519.16;4515193;31;33816;-61
2021/04/21 12:08:33;;;;;;;9.25;3.33;;;;;;;23.51;39.98;99526.75;4515334;31;33746;-61
2021/04/21 12:11:01;;;;;;;9.18;3.97;;;;;;;23.50;39.96;99522.34;4515664;31;34147;-61